Time;durP1;ratioP1;P1;durP2;ratioP2;P2;SDS_P1;SDS_P2;PMS_P1;PMS_P2;Temp;Humidity;BMP_temperature;BMP_pressure;BME280_temperature;BME280_humidity;BME280_pressure;Samples;Min_cycle;Max_cycle;Signal;HPM_P1;HPM_P2
2022/05/01 00:05:21;;;;;;;1.48;1.27;;;;;;;;;;20828284;28;20049;-81
2022/05/01 00:15:23;;;;;;;1.65;1.52;;;;;;;;;;20810643;28;20054;-80
2022/05/01 00:25:25;;;;;;;1.65;1.55;;;;;;;;;;20826655;28;20470;-79
2022/05/01 00:45:48;;;;;;;1.73;1.35;;;;;;;;;;20825649;28;20061;-81
2022/05/01 00:55:49;;;;;;;1.30;1.20;;;;;;;;;;20825138;28;20053;-79
2022/05/01 01:05:51;;;;;;;1.67;1.45;;;;;;;;;;20824295;28;20041;-79
2022/05/01 01:15:54;;;;;;;1.50;1.40;;;;;;;;;;20773533;28;20149;-79
2022/05/01 01:25:55;;;;;;;1.27;1.17;;;;;;;;;;20823597;28;20053;-79
2022/05/01 01:36:00;;;;;;;1.30;1.20;;;;;;;;;;20833686;28;20063;-79
2022/05/01 01:46:02;;;;;;;1.33;1.20;;;;;;;;;;20838344;28;20509;-80
2022/05/01 01:56:07;;;;;;;2.25;1.00;;;;;;;;;;20838629;28;20052;-81
2022/05/01 02:06:09;;;;;;;2.17;1.40;;;;;;;;;;20837508;28;20050;-81
2022/05/01 02:16:10;;;;;;;1.50;1.40;;;;;;;;;;20802648;28;20060;-81
2022/05/01 02:26:13;;;;;;;1.20;1.10;;;;;;;;;;20836576;28;20491;-80
2022/05/01 02:36:16;;;;;;;1.65;1.52;;;;;;;;;;20818135;28;20107;-81
2022/05/01 02:46:18;;;;;;;1.60;1.40;;;;;;;;;;20834811;28;20048;-80
2022/05/01 02:56:20;;;;;;;1.27;1.17;;;;;;;;;;20833923;28;20502;-81
2022/05/01 03:06:21;;;;;;;1.50;1.20;;;;;;;;;;20799436;28;20438;-80
2022/05/01 03:16:23;;;;;;;1.25;1.10;;;;;;;;;;20832870;28;20049;-80
2022/05/01 03:26:25;;;;;;;1.67;1.38;;;;;;;;;;20814242;28;20049;-80
2022/05/01 03:36:26;;;;;;;1.40;1.30;;;;;;;;;;20831057;28;20045;-81
2022/05/01 03:46:28;;;;;;;1.35;1.25;;;;;;;;;;20812444;28;20049;-79
2022/05/01 03:56:30;;;;;;;1.50;1.40;;;;;;;;;;20811131;28;20177;-81
2022/05/01 04:06:32;;;;;;;1.60;1.40;;;;;;;;;;20828484;28;20100;-81
2022/05/01 04:16:33;;;;;;;1.98;1.77;;;;;;;;;;20827736;28;20581;-81
2022/05/01 04:26:35;;;;;;;1.80;1.70;;;;;;;;;;20827164;28;20049;-81
2022/05/01 04:36:39;;;;;;;2.00;1.52;;;;;;;;;;20826186;28;20050;-79
2022/05/01 04:46:40;;;;;;;1.50;1.40;;;;;;;;;;20808441;28;20045;-81
2022/05/01 05:07:23;;;;;;;2.10;1.58;;;;;;;;;;20717900;28;20045;-81
2022/05/01 05:17:24;;;;;;;1.30;1.20;;;;;;;;;;20823614;28;20127;-81
2022/05/01 05:27:26;;;;;;;1.40;1.30;;;;;;;;;;20823289;28;20111;-80
2022/05/01 05:37:28;;;;;;;1.40;1.30;;;;;;;;;;20805378;28;20049;-81
2022/05/01 05:47:29;;;;;;;1.65;1.30;;;;;;;;;;20805121;28;20045;-79
2022/05/01 05:57:31;;;;;;;1.40;1.30;;;;;;;;;;20822091;28;20038;-80
2022/05/01 06:07:32;;;;;;;1.48;1.38;;;;;;;;;;20804146;28;20115;-80
2022/05/01 06:17:34;;;;;;;1.30;1.20;;;;;;;;;;20806767;28;20061;-80
2022/05/01 06:27:36;;;;;;;1.48;1.38;;;;;;;;;;20836449;28;20047;-80
2022/05/01 06:37:38;;;;;;;1.60;1.50;;;;;;;;;;20835305;28;20061;-80
2022/05/01 06:47:40;;;;;;;1.90;1.70;;;;;;;;;;20800648;28;20045;-80
2022/05/01 06:57:42;;;;;;;2.08;1.60;;;;;;;;;;20833804;28;20096;-80
2022/05/01 07:07:44;;;;;;;1.50;1.40;;;;;;;;;;20815482;28;20518;-80
2022/05/01 07:17:46;;;;;;;1.88;1.65;;;;;;;;;;20832589;28;20492;-80
2022/05/01 07:27:47;;;;;;;1.73;1.60;;;;;;;;;;20813460;28;20115;-80
2022/05/01 07:37:49;;;;;;;1.50;1.40;;;;;;;;;;20814227;28;20056;-80
2022/05/01 07:47:51;;;;;;;1.63;1.40;;;;;;;;;;20812904;28;20124;-80
2022/05/01 07:57:53;;;;;;;1.25;1.15;;;;;;;;;;20829337;28;20091;-80
2022/05/01 08:07:54;;;;;;;1.33;1.23;;;;;;;;;;20811025;28;20049;-80
2022/05/01 08:21:05;;;;;;;1.48;1.35;;;;;;;;;;20810560;28;20053;-80
2022/05/01 08:28:18;;;;;;;1.58;1.30;;;;;;;;;;20828271;28;20091;-80
2022/05/01 08:38:20;;;;;;;1.92;1.73;;;;;;;;;;20824918;28;20049;-80
2022/05/01 08:48:29;;;;;;;1.48;1.38;;;;;;;;;;20807757;28;20065;-80
2022/05/01 08:58:33;;;;;;;1.30;1.20;;;;;;;;;;20824891;28;20049;-80
2022/05/01 09:08:36;;;;;;;1.52;1.38;;;;;;;;;;20823901;28;20065;-80
2022/05/01 09:18:42;;;;;;;1.58;1.30;;;;;;;;;;20823657;28;20057;-80
2022/05/01 09:28:47;;;;;;;1.30;1.20;;;;;;;;;;20825674;28;20530;-80
2022/05/01 09:39:01;;;;;;;1.33;1.23;;;;;;;;;;20824986;28;20050;-80
2022/05/01 09:49:03;;;;;;;1.50;1.38;;;;;;;;;;20813408;28;20048;-80
2022/05/01 09:59:05;;;;;;;1.50;1.20;;;;;;;;;;20836310;28;20048;-80
2022/05/01 10:09:08;;;;;;;1.20;1.10;;;;;;;;;;20837890;28;20046;-81
2022/05/01 10:19:10;;;;;;;1.33;1.10;;;;;;;;;;20819738;28;20395;-81
2022/05/01 10:29:27;;;;;;;1.42;1.27;;;;;;;;;;20818645;28;20111;-81
2022/05/01 10:39:33;;;;;;;1.40;1.30;;;;;;;;;;20820723;28;20057;-80
2022/05/01 10:49:36;;;;;;;1.20;1.10;;;;;;;;;;20835104;28;20404;-80
2022/05/01 10:59:43;;;;;;;1.20;1.10;;;;;;;;;;20816312;28;20057;-80
2022/05/01 11:09:47;;;;;;;1.55;1.20;;;;;;;;;;20815051;28;20423;-80
2022/05/01 11:19:51;;;;;;;1.33;1.23;;;;;;;;;;20832635;28;20076;-80
2022/05/01 11:30:08;;;;;;;1.70;1.30;;;;;;;;;;20831988;28;20172;-81
2022/05/01 11:40:20;;;;;;;1.23;1.13;;;;;;;;;;20813073;28;20047;-80
2022/05/01 11:50:23;;;;;;;1.30;1.20;;;;;;;;;;20831133;28;20442;-80
2022/05/01 12:10:43;;;;;;;2.05;1.15;;;;;;;;;;20810713;28;20050;-80
2022/05/01 12:20:45;;;;;;;1.43;1.33;;;;;;;;;;20794241;28;20045;-80
2022/05/01 12:30:50;;;;;;;1.30;1.20;;;;;;;;;;20827136;28;20635;-80
2022/05/01 12:51:13;;;;;;;1.23;0.90;;;;;;;;;;20825578;28;20080;-80
2022/05/01 13:01:27;;;;;;;1.20;1.10;;;;;;;;;;20790953;28;20038;-80
2022/05/01 13:11:30;;;;;;;1.40;1.30;;;;;;;;;;20824324;28;20068;-80
2022/05/01 13:21:41;;;;;;;1.63;1.35;;;;;;;;;;20823619;28;20084;-80
2022/05/01 13:31:45;;;;;;;1.38;1.27;;;;;;;;;;20822882;28;20334;-80
2022/05/01 13:52:07;;;;;;;1.73;1.25;;;;;;;;;;20822728;28;20115;-80
2022/05/01 14:02:11;;;;;;;1.33;1.23;;;;;;;;;;20804778;28;20057;-80
2022/05/01 14:12:13;;;;;;;1.27;1.17;;;;;;;;;;20804109;28;20050;-80
2022/05/01 14:22:18;;;;;;;1.58;1.13;;;;;;;;;;20821314;28;20041;-80
2022/05/01 14:32:23;;;;;;;1.02;1.00;;;;;;;;;;20803664;28;20049;-80
2022/05/01 14:42:31;;;;;;;1.42;1.33;;;;;;;;;;20812521;28;20052;-81
2022/05/01 14:52:33;;;;;;;1.80;1.30;;;;;;;;;;20817288;28;20053;-80
2022/05/01 15:12:56;;;;;;;1.58;1.30;;;;;;;;;;20833361;28;20070;-80
2022/05/01 15:23:10;;;;;;;1.65;1.55;;;;;;;;;;20832159;28;20049;-81
2022/05/01 15:43:31;;;;;;;1.60;1.25;;;;;;;;;;20812992;28;20045;-80
2022/05/01 15:53:39;;;;;;;1.77;1.35;;;;;;;;;;20829106;28;20050;-80
2022/05/01 16:03:41;;;;;;;1.70;1.30;;;;;;;;;;20811908;28;20427;-80
2022/05/01 16:13:52;;;;;;;1.30;1.20;;;;;;;;;;20828033;28;20065;-80
2022/05/01 16:24:12;;;;;;;1.20;1.10;;;;;;;;;;20827321;28;20053;-80
2022/05/01 16:34:31;;;;;;;1.35;1.25;;;;;;;;;;20825869;28;20107;-80
2022/05/01 16:44:33;;;;;;;1.63;1.52;;;;;;;;;;20826363;28;20552;-80
2022/05/01 16:54:37;;;;;;;1.58;1.48;;;;;;;;;;20825555;28;20049;-80
2022/05/01 17:04:44;;;;;;;1.75;1.17;;;;;;;;;;20807061;28;20053;-80
2022/05/01 17:15:13;;;;;;;1.35;1.25;;;;;;;;;;20823726;28;20076;-80
2022/05/01 17:25:16;;;;;;;1.45;1.35;;;;;;;;;;20821425;28;20041;-80
2022/05/01 17:35:17;;;;;;;1.60;1.15;;;;;;;;;;20823225;28;20052;-80
2022/05/01 17:45:21;;;;;;;1.83;1.30;;;;;;;;;;20822839;28;20111;-80
2022/05/01 17:55:22;;;;;;;1.40;1.30;;;;;;;;;;20822888;28;20068;-80
2022/05/01 18:15:56;;;;;;;1.50;1.23;;;;;;;;;;20828085;28;20049;-80
2022/05/01 18:26:01;;;;;;;1.20;1.10;;;;;;;;;;20836987;28;20053;-81
2022/05/01 18:36:04;;;;;;;1.30;1.20;;;;;;;;;;20836233;28;20050;-80
2022/05/01 18:46:06;;;;;;;1.35;1.25;;;;;;;;;;20817862;28;20111;-80
2022/05/01 18:56:10;;;;;;;1.15;1.00;;;;;;;;;;20817656;28;20071;-80
2022/05/01 19:06:12;;;;;;;2.05;1.40;;;;;;;;;;20816618;28;20045;-80
2022/05/01 19:16:15;;;;;;;1.40;1.00;;;;;;;;;;20832845;28;20081;-80
2022/05/01 19:26:18;;;;;;;1.60;1.25;;;;;;;;;;20813495;28;20072;-80
2022/05/01 19:36:25;;;;;;;1.25;1.13;;;;;;;;;;20831325;28;20099;-80
2022/05/01 19:46:43;;;;;;;1.48;1.15;;;;;;;;;;20813321;28;20052;-80
2022/05/01 19:56:45;;;;;;;1.10;1.00;;;;;;;;;;20812590;28;20063;-80
2022/05/01 20:06:49;;;;;;;1.85;1.27;;;;;;;;;;20828437;28;20045;-80
2022/05/01 20:16:58;;;;;;;1.33;1.07;;;;;;;;;;20828249;28;20080;-80
2022/05/01 20:27:12;;;;;;;1.20;1.10;;;;;;;;;;20827605;28;20049;-80
2022/05/01 20:37:33;;;;;;;1.30;1.20;;;;;;;;;;20810319;28;20507;-80
2022/05/01 20:47:44;;;;;;;1.30;1.20;;;;;;;;;;20826142;28;20095;-80
2022/05/01 20:57:46;;;;;;;1.00;1.00;;;;;;;;;;20825656;28;20491;-80
2022/05/01 21:07:47;;;;;;;0.90;0.90;;;;;;;;;;20807473;28;20050;-80
2022/05/01 21:17:49;;;;;;;1.85;1.10;;;;;;;;;;20806745;28;20063;-80
2022/05/01 21:27:51;;;;;;;1.58;1.05;;;;;;;;;;20823672;28;20049;-80
2022/05/01 21:37:53;;;;;;;1.10;1.00;;;;;;;;;;20823382;28;20495;-80
2022/05/01 21:47:55;;;;;;;1.08;0.98;;;;;;;;;;20807734;28;20523;-80
2022/05/01 21:57:58;;;;;;;1.15;1.05;;;;;;;;;;20839188;28;20092;-80
2022/05/01 22:07:59;;;;;;;1.52;0.90;;;;;;;;;;20838643;28;20045;-80
2022/05/01 22:18:01;;;;;;;0.80;0.80;;;;;;;;;;20837894;28;20053;-80
2022/05/01 22:28:03;;;;;;;1.20;1.10;;;;;;;;;;20836797;28;20117;-80
2022/05/01 22:38:07;;;;;;;0.80;0.80;;;;;;;;;;20819836;28;20049;-80
2022/05/01 22:48:09;;;;;;;0.93;0.90;;;;;;;;;;20835311;28;20061;-80
2022/05/01 22:58:11;;;;;;;1.00;0.90;;;;;;;;;;20834133;28;20111;-80
2022/05/01 23:08:13;;;;;;;0.90;0.90;;;;;;;;;;20816666;28;20042;-80
2022/05/01 23:18:16;;;;;;;0.80;0.80;;;;;;;;;;20832837;28;20630;-80
2022/05/01 23:28:18;;;;;;;0.93;0.82;;;;;;;;;;20814762;28;20095;-80
2022/05/01 23:38:19;;;;;;;0.80;0.80;;;;;;;;;;20831366;28;20060;-80
2022/05/01 23:48:21;;;;;;;1.10;0.90;;;;;;;;;;20830856;28;20038;-80
2022/05/01 23:58:23;;;;;;;0.93;0.82;;;;;;;;;;20812726;28;20042;-80
